Historique des mesures à Cassis (13260), France
Quotidien Résumé Juin 11, 2018 Unités:  Métrique    US   Métrique/US
« Précédent (Jour)
Suivant (Jour) »
Quotidien Hebdomadaire Mensuel Annuel Période au choix
  Maximum: Minimum: Moyenne:
Température: TemperatureC °C 18.5 °C 21.7 °C
Point de rosée: DewpointC °C 12.7 °C 16.1 °C
Humidité: Humidity % 55 % 67 %
Vitesse du vent: 0 km/h 0 km/h 4.3 km/h
Rafales: 0 km/h - -
Vent:- - South
Pression: PressurehPa hPa 1005.7 hPa -
Précipitations: 4.1 mm    
Historical Graphs
 
 
Mesures pour : Juin 11, 2018
Heure Temperature Point de rosée Pression Vent Vitesse du vent Rafales Humidité Pluie (par heure) Conditions
TemperatureC °C DewpointC °C PressurehPa hPa Calm     Humidity % HourlyPrecipMM mm SoftwareType W/m2
00:10 21.8 °C 13.7 °C 1009.0 hPa North 4.7 km/h 16.3 km/h 60 % 0.0 mm open2300-1.11 W/m2
01:10 22.2 °C 12.7 °C 1005.7 hPa NW 17.9 km/h 17.9 km/h 55 % 0.0 mm open2300-1.11 W/m2
02:10 22.6 °C 13.1 °C 1007.3 hPa Calm   8.9 km/h 55 % 0.0 mm open2300-1.11 W/m2
03:10 21.3 °C 13.9 °C 1007.2 hPa NNW 4.2 km/h 9.8 km/h 63 % 0.0 mm open2300-1.11 W/m2
04:10 21.3 °C 15.8 °C 1008.9 hPa WNW 6.4 km/h 6.4 km/h 71 % 0.0 mm open2300-1.11 W/m2
05:10 21.1 °C 16.4 °C 1009.0 hPa Calm   1.8 km/h 75 % 0.5 mm open2300-1.11 W/m2
06:10 20.0 °C 16.3 °C 1008.6 hPa Calm   2.3 km/h 79 % 3.0 mm open2300-1.11 W/m2
07:10 18.5 °C 15.2 °C 1007.0 hPa NNW 4.2 km/h 6.4 km/h 81 % 0.5 mm open2300-1.11 W/m2
08:10 18.8 °C 15.3 °C 1007.0 hPa NE 5.6 km/h 17.9 km/h 80 % 0.0 mm open2300-1.11 W/m2
09:10 20.8 °C 16.4 °C 1005.9 hPa NNE 9.8 km/h 9.8 km/h 76 % 0.0 mm open2300-1.11 W/m2
10:10 23.2 °C 17.7 °C 1006.3 hPa Calm   9.3 km/h 71 % 0.0 mm open2300-1.11 W/m2
11:10 24.2 °C 17.4 °C 1006.5 hPa WNW 2.3 km/h 5.1 km/h 66 % 0.0 mm open2300-1.11 W/m2
12:10 23.7 °C 17.4 °C 1007.6 hPa SSW 16.3 km/h 16.3 km/h 68 % 0.0 mm open2300-1.11 W/m2
13:10 23.9 °C 18.1 °C 1007.6 hPa Calm     70 % 0.0 mm open2300-1.11 W/m2
14:10 25.4 °C 19.6 °C 1007.6 hPa Calm   5.6 km/h 70 % 0.0 mm open2300-1.11 W/m2
15:10 24.8 °C 18.2 °C 1007.2 hPa North 12.2 km/h 12.2 km/h 67 % 0.0 mm open2300-1.11 W/m2
16:10 22.9 °C 18.1 °C 1006.7 hPa SE 6.4 km/h 13.2 km/h 74 % 0.0 mm open2300-1.11 W/m2
17:10 23.9 °C 18.6 °C 1006.3 hPa ESE 2.3 km/h 6.4 km/h 72 % 0.0 mm open2300-1.11 W/m2
18:10 25.2 °C 18.6 °C 1006.0 hPa SSW 3.4 km/h 4.2 km/h 67 % 0.0 mm open2300-1.11 W/m2
19:10 25.2 °C 18.4 °C 1006.0 hPa SE 6.9 km/h 6.9 km/h 66 % 0.0 mm open2300-1.11 W/m2
20:10 24.2 °C 18.2 °C 1006.3 hPa Calm   1.8 km/h 69 % 0.0 mm open2300-1.11 W/m2
21:10 23.1 °C 18.0 °C 1006.4 hPa SSW 4.2 km/h 4.2 km/h 73 % 0.0 mm open2300-1.11 W/m2
22:10 22.5 °C 18.1 °C 1007.0 hPa Calm     76 % 0.0 mm open2300-1.11 W/m2
23:10 22.1 °C 18.1 °C 1007.2 hPa Calm     78 % 0.0 mm open2300-1.11 W/m2
Observations météo à CASSIS
WU-History script by Weather Underground - 1 mb